Ana Sayfa
METAR-TAF:

METAR-TAF

Havaalanları :

Huntsville, Alabama, Amerika Birleşik Devletleri

Enlem: 34-38-37N, Boylam: 086-47-08W, yükseklik: 192 m

Güncel hava durumu gözlemi

Rapor saat 22:53 UTC de 1 saat ve 7 dakika önce yapıldı.
Rüzgar güneydan 11 kt
Sıcaklık 31°C
Nem 40%
Basınç 1014 hPa
Görüş mesafesi: 16.1 km
5500 ft yükseklikte az bulutlu
25000 ft yükseklikte az bulutlu

METAR: KHSV 212253Z 18011KT 10SM FEW055 FEW250 31/16 A2993 RMK AO2 SLP128 T03060161

Saat: 19:00 (00:00 UTC)

Tahmin

Rapor saat 23:39 UTC de 21 dakika önce yapıldı.
Ayın 22'si saat 00 UTC'den ayın 22'si saat 24 UTC'ye kadar geçerli Tahmin
Rüzgar güneydan 8 kt
Görüş mesafesi: 10 km
21000 ft yükseklikte az bulutlu
Ayın 22'si saat 1600 UTC'den
Rüzgar güneydan 7 kt
Görüş mesafesi: 10 km
14000 ft yükseklikte parçalı çok bulutlu

TAF: KHSV 212339Z 2200/2224 18008KT P6SM FEW210 FM221600 18007KT P6SM BKN140

4.000'den fazla havaalanı için hava durumu gözlemleri ve tahminleri (METAR ve TAF raporları).

Kullanılabilir istasyonlar harita üzerinde sarı ve kırmızı noktalarla gösterilir.

İstasyonun adını görmek için fareyi noktanın üzerinde gezdirin.

Sonrasında hava gözlem ve tahminlerini görmek için tıklayın.

Haritayı değiştirmek için: yaklaştırmak için siyah artı işaretli yeşil düğmeye ve uzaklaştırmak için de eksi işaretli düğmeye hızla tıklayın; bitişik haritalar için yeşil okları kullanın.


METAR-TAF: